TimePDT,TemperatureF,Dew PointF,Humidity,Sea Level PressureIn,VisibilityMPH,Wind Direction,Wind SpeedMPH,Gust SpeedMPH,PrecipitationIn,Events,Conditions,WindDirDegrees,DateUTC
1:53 AM,50.0,43.0,77,30.01,10.0,Calm,Calm,-,N/A,,Clear,0,2012-10-09 08:53:00
2:53 AM,54.0,46.9,77,30.01,10.0,Variable,4.6,-,N/A,,Clear,0,2012-10-09 09:53:00
3:53 AM,54.0,48.0,80,30.00,10.0,SW,6.9,-,N/A,,Clear,230,2012-10-09 10:53:00
4:53 AM,52.0,46.9,83,29.99,10.0,SW,4.6,-,N/A,,Clear,220,2012-10-09 11:53:00
5:53 AM,48.0,44.1,86,30.00,10.0,Calm,Calm,-,N/A,,Clear,0,2012-10-09 12:53:00
6:53 AM,48.0,44.1,86,30.01,10.0,Calm,Calm,-,N/A,,Clear,0,2012-10-09 13:53:00
7:53 AM,51.1,46.0,83,30.01,10.0,Calm,Calm,-,N/A,,Clear,0,2012-10-09 14:53:00
8:53 AM,57.0,48.0,72,30.03,10.0,Calm,Calm,-,N/A,,Clear,0,2012-10-09 15:53:00
9:53 AM,62.1,48.0,60,30.04,10.0,NNW,4.6,-,N/A,,Clear,330,2012-10-09 16:53:00
10:53 AM,66.0,48.0,52,30.03,10.0,Variable,4.6,-,N/A,,Clear,0,2012-10-09 17:53:00
11:53 AM,70.0,48.9,47,30.01,10.0,Variable,4.6,-,N/A,,Clear,0,2012-10-09 18:53:00
12:53 PM,72.0,48.9,44,30.00,10.0,Calm,Calm,-,N/A,,Clear,0,2012-10-09 19:53:00
1:53 PM,72.0,48.0,43,29.97,10.0,NNW,3.5,-,N/A,,Clear,330,2012-10-09 20:53:00
2:53 PM,73.9,46.9,38,29.96,10.0,Variable,3.5,-,N/A,,Clear,0,2012-10-09 21:53:00
3:53 PM,75.0,44.1,33,29.94,10.0,Variable,3.5,-,N/A,,Clear,0,2012-10-09 22:53:00
4:53 PM,75.0,44.1,33,29.92,10.0,West,4.6,-,N/A,,Clear,270,2012-10-09 23:53:00
5:53 PM,73.0,44.1,35,29.92,10.0,Calm,Calm,-,N/A,,Clear,0,2012-10-10 00:53:00
6:53 PM,68.0,51.1,55,29.92,10.0,SW,6.9,-,N/A,,Clear,220,2012-10-10 01:53:00
7:53 PM,64.9,48.0,54,29.94,10.0,Calm,Calm,-,N/A,,Clear,0,2012-10-10 02:53:00
8:53 PM,64.0,46.0,52,29.94,10.0,SW,4.6,-,N/A,,Clear,230,2012-10-10 03:53:00
9:53 PM,57.9,45.0,62,29.94,10.0,Calm,Calm,-,N/A,,Clear,0,2012-10-10 04:53:00
10:53 PM,55.9,45.0,67,29.94,10.0,ENE,3.5,-,N/A,,Clear,70,2012-10-10 05:53:00
11:53 PM,54.0,45.0,72,29.94,10.0,Calm,Calm,-,N/A,,Clear,0,2012-10-10 06:53:00